createdAt,value
2019-02-21T00:00:58.808Z,3.22
2019-02-21T00:03:27.804Z,3.27
2019-02-21T00:05:56.773Z,3.20
2019-02-21T00:08:25.621Z,3.09
2019-02-21T00:10:54.544Z,3.23
2019-02-21T00:13:23.561Z,3.15
2019-02-21T00:15:52.502Z,3.15
2019-02-21T00:18:21.447Z,3.07
2019-02-21T00:20:50.368Z,2.94
2019-02-21T00:23:19.163Z,2.78
2019-02-21T00:25:48.143Z,2.71
2019-02-21T00:28:17.010Z,2.66
2019-02-21T00:30:45.867Z,2.66
2019-02-21T00:33:14.754Z,2.37
2019-02-21T00:35:43.669Z,2.38
2019-02-21T00:38:12.566Z,2.13
2019-02-21T00:40:41.493Z,2.00
2019-02-21T00:43:10.400Z,1.91
2019-02-21T00:45:39.259Z,1.87
2019-02-21T00:48:08.134Z,1.83
2019-02-21T00:50:36.921Z,1.74
2019-02-21T00:53:05.894Z,1.67
2019-02-21T00:55:34.741Z,1.66
2019-02-21T00:58:03.631Z,1.70
2019-02-21T01:00:32.612Z,1.68
2019-02-21T01:03:01.603Z,1.68
2019-02-21T01:05:30.524Z,1.76
2019-02-21T01:07:59.499Z,1.73
2019-02-21T01:10:28.714Z,1.64
2019-02-21T01:12:57.606Z,1.70
2019-02-21T01:15:26.516Z,1.95
2019-02-21T01:17:55.436Z,1.97
2019-02-21T01:20:24.464Z,2.16
2019-02-21T01:22:53.418Z,2.02
2019-02-21T01:25:22.289Z,1.71
2019-02-21T01:27:51.064Z,1.66
2019-02-21T01:30:20.088Z,1.66
2019-02-21T01:32:49.041Z,1.69
2019-02-21T01:35:17.932Z,1.69
2019-02-21T01:37:46.868Z,1.76
2019-02-21T01:40:15.739Z,1.72
2019-02-21T01:42:44.676Z,1.59
2019-02-21T01:45:13.755Z,1.50
2019-02-21T01:47:42.648Z,1.49
2019-02-21T01:50:11.646Z,1.64
2019-02-21T01:52:40.601Z,1.78
2019-02-21T01:55:10.351Z,1.46
2019-02-21T01:57:39.131Z,1.51
2019-02-21T02:00:10.136Z,1.59
2019-02-21T02:02:39.112Z,1.48
2019-02-21T02:05:09.134Z,1.38
2019-02-21T02:07:38.391Z,1.33
2019-02-21T02:10:08.293Z,1.25
2019-02-21T02:12:37.424Z,1.21
2019-02-21T02:15:07.318Z,1.34
2019-02-21T02:17:36.319Z,1.40
2019-02-21T02:20:05.610Z,1.64
2019-02-21T02:22:34.559Z,1.63
2019-02-21T02:25:03.628Z,1.82
2019-02-21T02:27:32.648Z,1.88
2019-02-21T02:30:01.441Z,1.90
2019-02-21T02:32:30.250Z,1.86
2019-02-21T02:34:59.957Z,1.77
2019-02-21T02:37:29.158Z,1.77
2019-02-21T02:39:58.052Z,1.93
2019-02-21T02:42:26.947Z,1.82
2019-02-21T02:44:55.919Z,1.91
2019-02-21T02:47:24.784Z,2.01
2019-02-21T02:49:53.634Z,1.99
2019-02-21T02:52:22.511Z,1.88
2019-02-21T02:54:51.441Z,1.95
2019-02-21T02:57:20.223Z,1.86
2019-02-21T02:59:49.235Z,1.95
2019-02-21T03:02:18.311Z,1.93
2019-02-21T03:04:47.215Z,1.82
2019-02-21T03:07:16.506Z,2.26
2019-02-21T03:09:45.526Z,2.30
2019-02-21T03:12:14.736Z,2.47
2019-02-21T03:14:43.636Z,2.40
2019-02-21T03:17:12.555Z,2.47
2019-02-21T03:19:41.382Z,2.55
2019-02-21T03:22:10.348Z,2.52
2019-02-21T03:24:39.249Z,2.49
2019-02-21T03:27:08.138Z,2.47
2019-02-21T03:29:37.042Z,2.37
2019-02-21T03:32:06.067Z,2.30
2019-02-21T03:34:35.397Z,2.21
2019-02-21T03:37:04.224Z,2.17
2019-02-21T03:39:33.210Z,2.08
2019-02-21T03:42:02.202Z,1.94
2019-02-21T03:44:31.201Z,1.78
2019-02-21T03:47:00.026Z,1.63
2019-02-21T03:49:28.899Z,1.59
2019-02-21T03:51:57.692Z,1.49
2019-02-21T03:54:26.628Z,1.56
2019-02-21T03:56:56.475Z,1.46
2019-02-21T03:59:25.498Z,1.39
2019-02-21T04:02:04.875Z,1.29
2019-02-21T04:04:25.034Z,1.21
2019-02-21T04:06:53.982Z,1.09
2019-02-21T04:09:22.793Z,1.06
2019-02-21T04:11:51.729Z,1.03
2019-02-21T04:14:21.180Z,0.95
2019-02-21T04:16:50.281Z,1.44
2019-02-21T04:19:19.126Z,1.55
2019-02-21T04:21:47.982Z,1.35
2019-02-21T04:24:16.891Z,1.23
2019-02-21T04:26:45.924Z,1.07
2019-02-21T04:29:15.168Z,0.98
2019-02-21T04:31:44.127Z,0.93
2019-02-21T04:34:12.878Z,0.92
2019-02-21T04:36:41.789Z,0.96
2019-02-21T04:39:10.633Z,1.02
2019-02-21T04:41:39.661Z,1.18
2019-02-21T04:44:08.564Z,1.14
2019-02-21T04:46:37.540Z,1.76
2019-02-21T04:49:06.396Z,1.72
2019-02-21T04:51:35.320Z,1.73
2019-02-21T04:54:04.288Z,1.72
2019-02-21T04:56:33.229Z,1.73
2019-02-21T04:59:02.184Z,1.62
2019-02-21T05:01:31.154Z,1.63
2019-02-21T05:04:00.119Z,1.93
2019-02-21T05:06:29.090Z,1.98
2019-02-21T05:08:57.925Z,1.92
2019-02-21T05:11:26.857Z,1.86
2019-02-21T05:13:57.709Z,1.91
2019-02-21T05:16:26.530Z,1.87
2019-02-21T05:18:55.504Z,2.03
2019-02-21T05:21:24.482Z,1.82
2019-02-21T05:23:53.484Z,2.06
2019-02-21T05:26:28.357Z,1.92
2019-02-21T05:28:57.237Z,1.88
2019-02-21T05:31:42.533Z,1.86
2019-02-21T05:34:26.200Z,1.80
2019-02-21T05:37:02.167Z,1.76
2019-02-21T05:39:50.060Z,1.84
2019-02-21T05:42:31.873Z,1.82
2019-02-21T05:45:38.081Z,1.88
2019-02-21T05:48:40.265Z,1.92
2019-02-21T05:51:23.752Z,1.89
2019-02-21T05:54:14.788Z,1.94
2019-02-21T05:57:01.595Z,1.96
2019-02-21T06:00:07.794Z,1.97
2019-02-21T06:02:58.263Z,1.98
2019-02-21T06:05:36.157Z,2.05
2019-02-21T06:08:22.948Z,2.08
2019-02-21T06:11:19.783Z,2.09
2019-02-21T06:13:56.780Z,2.14
2019-02-21T06:16:50.132Z,2.17
2019-02-21T06:19:56.237Z,2.14
2019-02-21T06:22:47.524Z,2.07
2019-02-21T06:25:50.553Z,2.02
2019-02-21T06:28:20.873Z,2.08
2019-02-21T06:30:53.478Z,2.03
2019-02-21T06:33:23.405Z,2.04
2019-02-21T06:35:52.411Z,1.96
2019-02-21T06:38:21.497Z,1.98
2019-02-21T06:40:50.537Z,2.01
2019-02-21T06:43:19.487Z,2.03
2019-02-21T06:45:48.488Z,2.06
2019-02-21T06:48:17.395Z,2.15
2019-02-21T06:50:47.737Z,2.23
2019-02-21T06:53:16.699Z,2.35
2019-02-21T06:55:45.504Z,2.49
2019-02-21T06:58:14.425Z,2.61
2019-02-21T07:00:43.498Z,2.62
2019-02-21T07:03:15.845Z,2.67
2019-02-21T07:05:43.549Z,3.25
2019-02-21T07:08:12.538Z,3.37
2019-02-21T07:10:41.513Z,3.18
2019-02-21T07:13:12.366Z,3.14
2019-02-21T07:15:41.426Z,3.24
2019-02-21T07:18:11.183Z,3.34
2019-02-21T07:20:40.028Z,3.43
2019-02-21T07:23:11.241Z,3.52
2019-02-21T07:25:51.345Z,3.71
2019-02-21T07:28:20.277Z,3.77
2019-02-21T07:30:50.273Z,3.84
2019-02-21T07:33:27.748Z,3.93
2019-02-21T07:35:49.872Z,4.12
2019-02-21T07:38:18.795Z,4.21
2019-02-21T07:40:47.651Z,4.26
2019-02-21T07:43:16.771Z,4.23
2019-02-21T07:45:45.788Z,4.38
2019-02-21T07:48:14.697Z,4.38
2019-02-21T07:50:43.707Z,4.37
2019-02-21T07:53:12.712Z,4.27
2019-02-21T07:55:41.644Z,4.17
2019-02-21T07:58:10.605Z,4.01
2019-02-21T08:00:39.524Z,4.19
2019-02-21T08:03:09.292Z,4.31
2019-02-21T08:05:38.811Z,4.41
2019-02-21T08:08:09.293Z,4.52
2019-02-21T08:10:38.876Z,4.56
2019-02-21T08:13:08.040Z,4.72
2019-02-21T08:15:37.171Z,4.77
2019-02-21T08:18:06.087Z,4.88
2019-02-21T08:20:40.626Z,5.08
2019-02-21T08:23:05.753Z,5.13
2019-02-21T08:25:34.672Z,5.30
2019-02-21T08:28:03.544Z,5.34
2019-02-21T08:30:33.113Z,5.30
2019-02-21T08:33:15.495Z,5.40
2019-02-21T08:35:44.363Z,5.54
2019-02-21T08:38:13.379Z,5.66
2019-02-21T08:40:42.286Z,5.56
2019-02-21T08:43:11.205Z,5.69
2019-02-21T08:45:40.051Z,5.83
2019-02-21T08:48:09.044Z,5.83
2019-02-21T08:50:38.008Z,6.00
2019-02-21T08:53:06.918Z,5.92
2019-02-21T08:55:35.978Z,5.86
2019-02-21T08:58:06.059Z,5.86
2019-02-21T09:00:35.987Z,5.83
2019-02-21T09:03:04.945Z,6.01
2019-02-21T09:05:33.977Z,6.28
2019-02-21T09:08:03.463Z,6.62
2019-02-21T09:10:32.491Z,6.83
2019-02-21T09:13:01.394Z,6.90
2019-02-21T09:15:30.181Z,6.96
2019-02-21T09:18:00.032Z,6.81
2019-02-21T09:20:28.985Z,6.29
2019-02-21T09:22:57.777Z,6.28
2019-02-21T09:25:26.703Z,6.18
2019-02-21T09:27:55.746Z,6.26
2019-02-21T09:30:24.646Z,6.26
2019-02-21T09:32:53.643Z,6.41
2019-02-21T09:35:22.647Z,6.52
2019-02-21T09:37:51.544Z,6.63
2019-02-21T09:40:20.479Z,7.01
2019-02-21T09:42:49.471Z,7.01
2019-02-21T09:45:18.626Z,7.40
2019-02-21T09:47:47.691Z,7.82
2019-02-21T09:50:16.811Z,8.01
2019-02-21T09:52:45.700Z,8.08
2019-02-21T09:55:15.745Z,8.15
2019-02-21T09:57:44.721Z,8.36
2019-02-21T10:00:16.176Z,8.25
2019-02-21T10:02:44.968Z,8.29
2019-02-21T10:05:14.048Z,8.29
2019-02-21T10:07:43.062Z,8.17
2019-02-21T10:10:14.440Z,8.06
2019-02-21T10:12:43.860Z,7.71
2019-02-21T10:15:13.902Z,7.80
2019-02-21T10:17:45.465Z,7.46
2019-02-21T10:20:17.217Z,7.61
2019-02-21T10:22:46.216Z,7.71
2019-02-21T10:25:17.944Z,8.00
2019-02-21T10:27:46.930Z,7.96
2019-02-21T10:30:17.337Z,8.06
2019-02-21T10:32:46.314Z,8.25
2019-02-21T10:35:15.408Z,8.53
2019-02-21T10:37:44.428Z,8.44
2019-02-21T10:40:13.495Z,8.55
2019-02-21T10:42:42.565Z,8.56
2019-02-21T10:45:14.008Z,8.99
2019-02-21T10:47:43.051Z,8.93
2019-02-21T10:50:14.980Z,8.88
2019-02-21T10:52:44.396Z,8.89
2019-02-21T10:55:14.220Z,9.02
2019-02-21T10:57:45.495Z,9.21
2019-02-21T11:00:18.830Z,9.42
2019-02-21T11:02:48.301Z,9.43
2019-02-21T11:05:17.452Z,9.42
2019-02-21T11:07:46.352Z,9.64
2019-02-21T11:10:18.917Z,9.60
2019-02-21T11:12:47.084Z,10.08
2019-02-21T11:15:16.441Z,10.11
2019-02-21T11:17:45.524Z,9.72
2019-02-21T11:20:15.929Z,9.89
2019-02-21T11:22:45.059Z,10.01
2019-02-21T11:25:14.163Z,10.19
2019-02-21T11:27:43.425Z,10.38
2019-02-21T11:30:15.027Z,10.21
2019-02-21T11:32:43.975Z,10.13
2019-02-21T11:35:13.729Z,10.07
2019-02-21T11:37:46.566Z,10.23
2019-02-21T11:40:15.366Z,10.23
2019-02-21T11:42:44.503Z,10.29
2019-02-21T11:45:15.117Z,10.38
2019-02-21T11:47:44.262Z,10.49
2019-02-21T11:50:15.187Z,10.41
2019-02-21T11:52:44.183Z,10.66
2019-02-21T11:55:16.035Z,10.71
2019-02-21T11:57:44.983Z,10.64
2019-02-21T12:00:19.461Z,10.70
2019-02-21T12:02:48.484Z,10.67
2019-02-21T12:05:19.563Z,10.50
2019-02-21T12:07:48.632Z,10.72
2019-02-21T12:10:17.679Z,10.87
2019-02-21T12:12:46.853Z,10.92
2019-02-21T12:15:16.125Z,10.93
2019-02-21T12:17:45.224Z,11.06
2019-02-21T12:20:14.901Z,11.36
2019-02-21T12:22:43.973Z,11.64
2019-02-21T12:25:14.421Z,11.80
2019-02-21T12:27:43.634Z,11.72
2019-02-21T12:30:14.890Z,11.78
2019-02-21T12:32:44.019Z,11.49
2019-02-21T12:35:13.323Z,11.53
2019-02-21T12:37:42.328Z,11.49
2019-02-21T12:40:13.595Z,11.80
2019-02-21T12:42:42.652Z,11.75
2019-02-21T12:45:13.428Z,11.76
2019-02-21T12:47:50.985Z,12.05
2019-02-21T12:50:13.379Z,12.03
2019-02-21T12:52:42.454Z,11.57
2019-02-21T12:55:11.531Z,11.25
2019-02-21T12:57:40.507Z,11.15
2019-02-21T13:00:12.637Z,11.25
2019-02-21T13:02:41.777Z,10.96
2019-02-21T13:05:10.992Z,10.84
2019-02-21T13:07:39.904Z,10.76
2019-02-21T13:10:13.244Z,10.58
2019-02-21T13:12:42.340Z,10.48
2019-02-21T13:15:12.800Z,10.36
2019-02-21T13:17:41.893Z,10.42
2019-02-21T13:20:11.296Z,10.62
2019-02-21T13:22:40.333Z,10.85
2019-02-21T13:25:10.528Z,11.20
2019-02-21T13:27:39.567Z,11.35
2019-02-21T13:30:11.280Z,11.76
2019-02-21T13:32:40.393Z,11.79
2019-02-21T13:35:10.520Z,11.90
2019-02-21T13:37:39.607Z,12.01
2019-02-21T13:40:10.426Z,12.08
2019-02-21T13:42:39.392Z,12.10
2019-02-21T13:45:09.454Z,12.22
2019-02-21T13:47:39.212Z,12.34
2019-02-21T13:50:11.502Z,12.73
2019-02-21T13:52:40.611Z,13.06
2019-02-21T13:55:09.595Z,13.34
2019-02-21T13:57:38.727Z,14.02
2019-02-21T14:00:11.100Z,13.98
2019-02-21T14:02:40.209Z,13.96
2019-02-21T14:05:09.274Z,13.98
2019-02-21T14:07:38.235Z,14.56
2019-02-21T14:10:07.972Z,14.74
2019-02-21T14:12:36.840Z,15.22
2019-02-21T14:15:07.763Z,15.37
2019-02-21T14:17:36.819Z,15.36
2019-02-21T14:20:06.180Z,15.34
2019-02-21T14:22:35.293Z,16.19
2019-02-21T14:25:04.890Z,16.91
2019-02-21T14:27:33.939Z,17.15
2019-02-21T14:30:03.008Z,16.76
2019-02-21T14:32:31.939Z,17.32
2019-02-21T14:35:00.984Z,17.15
2019-02-21T14:37:29.929Z,15.83
2019-02-21T14:39:58.958Z,16.37
2019-02-21T14:42:28.093Z,16.66
2019-02-21T14:44:57.099Z,17.09
2019-02-21T14:47:26.093Z,17.25
2019-02-21T14:49:55.128Z,17.26
2019-02-21T14:52:24.145Z,16.96
2019-02-21T14:54:53.160Z,17.19
2019-02-21T14:57:22.130Z,17.58
2019-02-21T14:59:51.262Z,17.79
2019-02-21T15:02:20.283Z,16.80
2019-02-21T15:04:49.264Z,16.78
2019-02-21T15:07:18.307Z,16.79
2019-02-21T15:09:47.409Z,16.90
2019-02-21T15:12:16.391Z,16.64
2019-02-21T15:14:45.392Z,16.02
2019-02-21T15:17:14.398Z,15.79
2019-02-21T15:19:43.384Z,15.57
2019-02-21T15:22:13.788Z,15.19
2019-02-21T15:24:42.990Z,14.96
2019-02-21T15:27:11.912Z,14.51
2019-02-21T15:29:41.718Z,14.51
2019-02-21T15:32:13.456Z,14.35
2019-02-21T15:34:41.676Z,14.22
2019-02-21T15:37:10.786Z,14.06
2019-02-21T15:39:42.766Z,13.86
2019-02-21T15:42:10.744Z,13.53
2019-02-21T15:44:39.845Z,13.49
2019-02-21T15:47:08.803Z,13.33
2019-02-21T15:49:38.216Z,13.37
2019-02-21T15:52:07.220Z,13.29
2019-02-21T15:54:36.373Z,13.24
2019-02-21T15:57:05.369Z,13.32
2019-02-21T15:59:34.467Z,13.18
2019-02-21T16:02:03.675Z,13.17
2019-02-21T16:04:35.291Z,12.96
2019-02-21T16:07:03.672Z,12.97
2019-02-21T16:09:32.575Z,12.98
2019-02-21T16:12:01.695Z,12.94
2019-02-21T16:14:30.690Z,12.85
2019-02-21T16:16:59.696Z,12.85
2019-02-21T16:19:28.826Z,12.70
2019-02-21T16:21:57.894Z,12.43
2019-02-21T16:24:26.938Z,12.57
2019-02-21T16:26:55.999Z,12.55
2019-02-21T16:29:26.027Z,12.49
2019-02-21T16:31:55.076Z,12.44
2019-02-21T16:34:24.086Z,12.40
2019-02-21T16:37:02.129Z,12.36
2019-02-21T16:39:23.833Z,12.31
2019-02-21T16:41:52.638Z,12.27
2019-02-21T16:44:21.808Z,12.24
2019-02-21T16:46:50.830Z,12.23
2019-02-21T16:49:19.962Z,12.21
2019-02-21T16:51:48.759Z,12.19
2019-02-21T16:54:17.703Z,12.18
2019-02-21T16:56:46.538Z,12.09
2019-02-21T16:59:15.449Z,12.02
2019-02-21T17:01:44.818Z,11.96
2019-02-21T17:04:13.901Z,11.93
2019-02-21T17:06:42.802Z,11.87
2019-02-21T17:09:11.788Z,11.82
2019-02-21T17:11:40.986Z,11.76
2019-02-21T17:14:10.305Z,11.72
2019-02-21T17:16:39.220Z,11.66
2019-02-21T17:19:08.713Z,11.66
2019-02-21T17:21:37.624Z,11.66
2019-02-21T17:24:06.613Z,11.57
2019-02-21T17:26:36.576Z,11.57
2019-02-21T17:29:05.575Z,11.55
2019-02-21T17:31:34.588Z,11.45
2019-02-21T17:34:03.552Z,11.39
2019-02-21T17:36:32.822Z,11.30
2019-02-21T17:39:01.993Z,11.25
2019-02-21T17:41:31.291Z,11.24
2019-02-21T17:44:03.240Z,11.25
2019-02-21T17:46:32.330Z,11.22
2019-02-21T17:49:01.286Z,11.17
2019-02-21T17:51:30.614Z,11.14
2019-02-21T17:53:59.483Z,11.13
2019-02-21T17:56:28.516Z,11.12
2019-02-21T17:58:57.603Z,11.07
2019-02-21T18:01:26.564Z,10.53
2019-02-21T18:03:55.685Z,11.08
2019-02-21T18:06:26.332Z,11.04
2019-02-21T18:08:55.353Z,11.04
2019-02-21T18:11:24.561Z,10.99
2019-02-21T18:13:53.546Z,10.90
2019-02-21T18:16:22.472Z,10.83
2019-02-21T18:18:51.501Z,10.80
2019-02-21T18:21:20.536Z,10.76
2019-02-21T18:23:49.567Z,10.72
2019-02-21T18:26:19.640Z,10.72
2019-02-21T18:28:48.573Z,10.65
2019-02-21T18:31:17.674Z,10.67
2019-02-21T18:33:46.592Z,10.66
2019-02-21T18:36:15.511Z,10.64
2019-02-21T18:38:44.451Z,10.67
2019-02-21T18:41:13.393Z,10.74
2019-02-21T18:43:42.538Z,10.79
2019-02-21T18:46:11.535Z,10.76
2019-02-21T18:48:40.431Z,10.73
2019-02-21T18:51:09.468Z,10.69
2019-02-21T18:53:38.564Z,10.65
2019-02-21T18:56:08.353Z,10.62
2019-02-21T18:58:37.293Z,10.60
2019-02-21T19:01:07.422Z,10.56
2019-02-21T19:03:36.424Z,10.55
2019-02-21T19:06:05.511Z,10.52
2019-02-21T19:08:34.510Z,10.53
2019-02-21T19:11:03.516Z,10.59
2019-02-21T19:13:32.441Z,10.55
2019-02-21T19:16:01.485Z,10.74
2019-02-21T19:18:30.390Z,10.63
2019-02-21T19:20:59.538Z,10.71
2019-02-21T19:23:28.514Z,10.53
2019-02-21T19:25:57.509Z,10.69
2019-02-21T19:28:26.491Z,10.55
2019-02-21T19:31:08.297Z,10.42
2019-02-21T19:33:37.509Z,10.34
2019-02-21T19:36:06.449Z,10.49
2019-02-21T19:38:35.407Z,10.53
2019-02-21T19:41:04.404Z,10.56
2019-02-21T19:43:33.508Z,10.35
2019-02-21T19:46:02.508Z,10.32
2019-02-21T19:48:31.378Z,10.22
2019-02-21T19:51:00.227Z,10.21
2019-02-21T19:53:29.269Z,10.17
2019-02-21T19:55:58.317Z,10.20
2019-02-21T19:58:27.531Z,10.14
2019-02-21T20:00:56.521Z,10.14
2019-02-21T20:03:25.329Z,10.06
2019-02-21T20:05:54.477Z,10.04
2019-02-21T20:08:23.472Z,10.08
2019-02-21T20:10:52.459Z,10.12
2019-02-21T20:13:21.457Z,10.12
2019-02-21T20:15:50.488Z,10.14
2019-02-21T20:18:19.472Z,10.15
2019-02-21T20:20:49.203Z,10.07
2019-02-21T20:23:18.359Z,10.00
2019-02-21T20:25:47.355Z,10.05
2019-02-21T20:28:16.374Z,10.06
2019-02-21T20:30:45.427Z,10.17
2019-02-21T20:33:14.608Z,10.15
2019-02-21T20:35:43.563Z,10.16
2019-02-21T20:38:12.602Z,10.14
2019-02-21T20:40:41.434Z,10.15
2019-02-21T20:43:10.377Z,10.10
2019-02-21T20:45:39.377Z,10.11
2019-02-21T20:48:08.394Z,9.99
2019-02-21T20:50:37.399Z,9.99
2019-02-21T20:53:06.468Z,9.88
2019-02-21T20:55:43.393Z,9.81
2019-02-21T20:58:06.366Z,9.90
2019-02-21T21:00:35.387Z,9.92
2019-02-21T21:03:04.419Z,9.88
2019-02-21T21:05:33.409Z,9.94
2019-02-21T21:08:02.388Z,9.88
2019-02-21T21:10:31.337Z,9.96
2019-02-21T21:13:00.348Z,9.84
2019-02-21T21:15:29.352Z,10.02
2019-02-21T21:17:58.185Z,9.92
2019-02-21T21:20:27.182Z,10.04
2019-02-21T21:22:56.087Z,9.95
2019-02-21T21:25:25.016Z,10.05
2019-02-21T21:27:54.118Z,10.01
2019-02-21T21:30:23.187Z,9.95
2019-02-21T21:32:53.132Z,10.02
2019-02-21T21:35:22.189Z,10.01
2019-02-21T21:37:51.180Z,10.08
2019-02-21T21:40:20.443Z,9.98
2019-02-21T21:42:49.732Z,9.94
2019-02-21T21:45:18.977Z,9.95
2019-02-21T21:47:47.991Z,10.07
2019-02-21T21:50:17.408Z,10.00
2019-02-21T21:52:46.339Z,9.86
2019-02-21T21:55:15.371Z,9.93
2019-02-21T21:57:44.503Z,9.82
2019-02-21T22:00:17.990Z,9.61
2019-02-21T22:02:47.163Z,9.66
2019-02-21T22:05:16.197Z,9.80
2019-02-21T22:07:45.246Z,9.68
2019-02-21T22:10:14.628Z,9.80
2019-02-21T22:12:43.634Z,9.86
2019-02-21T22:15:13.180Z,9.82
2019-02-21T22:17:42.337Z,9.69
2019-02-21T22:20:11.284Z,9.62
2019-02-21T22:22:40.260Z,9.67
2019-02-21T22:25:10.493Z,9.58
2019-02-21T22:27:39.613Z,9.61
2019-02-21T22:30:11.043Z,9.69
2019-02-21T22:32:40.131Z,9.59
2019-02-21T22:35:09.946Z,9.58
2019-02-21T22:37:38.982Z,9.43
2019-02-21T22:40:09.481Z,9.54
2019-02-21T22:42:38.499Z,9.59
2019-02-21T22:45:07.764Z,9.55
2019-02-21T22:47:36.896Z,9.49
2019-02-21T22:50:07.477Z,9.47
2019-02-21T22:52:36.419Z,9.38
2019-02-21T22:55:09.716Z,9.59
2019-02-21T22:57:36.865Z,9.55
2019-02-21T23:00:50.362Z,9.57
2019-02-21T23:03:19.355Z,9.50
2019-02-21T23:06:05.812Z,9.35
2019-02-21T23:08:53.906Z,9.16
2019-02-21T23:11:23.341Z,9.11
2019-02-21T23:13:52.421Z,9.06
2019-02-21T23:16:21.576Z,9.34
2019-02-21T23:18:56.312Z,9.30
2019-02-21T23:21:25.749Z,9.20
2019-02-21T23:23:54.833Z,9.14
2019-02-21T23:26:25.361Z,9.08
2019-02-21T23:28:54.428Z,8.95
2019-02-21T23:31:23.215Z,8.92
2019-02-21T23:33:55.499Z,9.01
2019-02-21T23:36:24.478Z,9.06
2019-02-21T23:38:53.472Z,8.88
2019-02-21T23:41:22.492Z,9.40
2019-02-21T23:43:51.479Z,9.27
2019-02-21T23:46:20.884Z,9.28
2019-02-21T23:48:49.680Z,9.27
2019-02-21T23:51:18.579Z,9.29
2019-02-21T23:53:47.583Z,9.44
2019-02-21T23:56:16.631Z,9.47
2019-02-21T23:58:45.543Z,9.39
